LBSF/SOF METAR and TAF weather

Enter ICAO airport designator
Station Type Date Time Source
LBSF METAR 2022/12/04 10:30 UTC NOAA

LBSF 041030Z 10019KT 9999 SCT016 BKN028 07/04 Q1025 NOSIG


Station Type Date Time Source
LBSF Decoded METAR 2022/12/04 10:30 UTC NOAA

Sofia Observ. , Bulgaria (LBSF) 42-39N 023-23E 595M
Dec 04, 2022 - 05:30 AM EST / 2022.12.04 1030 UTC
Wind: from the E (100 degrees) at 22 MPH (19 KT):0
Visibility: greater than 7 mile(s):0
Sky conditions: mostly cloudy
Temperature: 44 F (7 C)
Dew Point: 39 F (4 C)
Relative Humidity: 81%
Pressure (altimeter): 30.27 in. Hg (1025 hPa)
ob: LBSF 041030Z 10019KT 9999 SCT016 BKN028 07/04 Q1025 NOSIG
cycle: 10

Station Type Date Time Source
LBSF TAF 2022/12/04 06:18 UTC NOAA

TAF LBSF 040500Z 0406/0506 09010KT 9999 SCT020 BKN040 PROB40
TEMPO 0422/0504 5000 RA BKN010 OVC020

Example: see airport list